Buoy 46928

sailwx.info

Track history (hours):
 
Tides and Currents Weather Stations Pressure Air Temp Water Temp Dewpoint Dewpoint Depression Visibility Wind Speed Wind Dir Waves Ship Positions

Drifting buoy 46928

Last reported at 2014-Sep-21 07:30 UTC. Time now 2014-Sep-21 10:12 UTC.
Position N 47°04' W 153°28'.

Barometer 1008.9 mb
Water temperature 15.1 ° C

Date/timePositionNaut miles runAvg speedWind from/ knotsBaromVisibWave heightAir tempDewpointWater temp
2014-Sep-21 07:30N 47°04' W 153°28'1 0.4 1008.9 15.1
2014-Sep-21 05:30N 47°04' W 153°27'1 0.7 1008.3 15.2
2014-Sep-21 03:30N 47°05' W 153°29'1 0.9 1008.2 15.2
2014-Sep-21 02:30N 47°05' W 153°28'1 0.6 1008.0 15.2
2014-Sep-21 01:30N 47°05' W 153°29'1 0.8 1008.0 15.2
2014-Sep-21 00:30N 47°06' W 153°30'2 0.8 1007.8 15.2
2014-Sep-20 22:30N 47°07' W 153°28'0 0.2 1008.1 15.2
2014-Sep-20 20:30N 47°06' W 153°28'2 0.5 1008.0 15.2
2014-Sep-20 17:30N 47°06' W 153°30'0 0.1 1007.8 15.1
2014-Sep-20 15:30N 47°06' W 153°30'1 0.9 1007.3 15.1
2014-Sep-20 14:30N 47°06' W 153°29'1 0.9 1007.2 15.1
2014-Sep-20 13:30N 47°06' W 153°30'1 1.2 1007.1 15.1
2014-Sep-20 12:30N 47°07' W 153°30'1 0.4 1007.0 15.1
2014-Sep-20 10:30N 47°08' W 153°29'1 0.2 1007.0 15.1
2014-Sep-20 05:30N 47°08' W 153°30'1 1.0 1006.1 15.2
2014-Sep-20 04:30N 47°07' W 153°31'1 0.6 1005.7 15.2
2014-Sep-20 03:30N 47°07' W 153°32'1 0.9 1005.4 15.2
2014-Sep-20 02:30N 47°07' W 153°32'1 0.7 1005.1 15.2
2014-Sep-20 00:30N 47°06' W 153°30'0 0.4 1004.9 15.2
2014-Sep-19 23:30N 47°07' W 153°31'2 1.5 1005.0 15.2
2014-Sep-19 22:30N 47°07' W 153°29'1 0.7 1005.2 15.2
2014-Sep-19 20:30N 47°08' W 153°30'0 0.0 1005.3 15.2
2014-Sep-19 19:30N 47°08' W 153°30'1 0.4 1005.2 15.1
2014-Sep-19 17:30N 47°09' W 153°31'1 0.5 1004.3 15.1
2014-Sep-19 14:30N 47°08' W 153°33'1 0.7 1004.1 15.1
2014-Sep-19 13:30N 47°07' W 153°33'0 0.0 1004.2 15.1
2014-Sep-19 12:30N 47°07' W 153°33'0 0.0 1004.7 15.1
2014-Sep-19 11:30N 47°07' W 153°33'1 0.3 1005.2 15.1
2014-Sep-19 07:30N 47°08' W 153°32'1 0.7 1006.4 15.1
2014-Sep-19 06:30N 47°08' W 153°32'0 0.0 1006.6 15.1
2014-Sep-19 05:30N 47°08' W 153°32'1 0.2 1006.7 15.1
2014-Sep-18 22:30N 47°08' W 153°34'0 0.0 1007.3 15.1
2014-Sep-18 21:30N 47°08' W 153°34'1 0.2 1007.4 15.1
2014-Sep-18 16:30N 47°09' W 153°35'0 0.1 1006.6 15.0
2014-Sep-18 15:30N 47°09' W 153°35'0 0.2 1006.3 15.0
2014-Sep-18 13:30N 47°09' W 153°35'3 1.5 1005.9 15.1
2014-Sep-18 11:30N 47°12' W 153°35'0 0.0 1005.5 15.1
2014-Sep-18 08:30N 47°12' W 153°35'1 0.4 1004.4 15.2
2014-Sep-18 06:30N 47°13' W 153°36'2 0.4 1003.1 15.2
2014-Sep-18 02:30N 47°13' W 153°38'1 0.7 999.2 15.4
2014-Sep-18 01:30N 47°14' W 153°37'0 0.4 999.4 15.4
2014-Sep-18 00:30N 47°14' W 153°38'3 0.7 999.6 15.4
2014-Sep-17 20:30N 47°15' W 153°41'1 1.0 1001.0 15.4
2014-Sep-17 19:30N 47°16' W 153°42'0 0.3 1001.4 15.4
2014-Sep-17 18:30N 47°16' W 153°42'1 0.3 1002.3 15.4
2014-Sep-17 15:30N 47°16' W 153°43'1 0.7 1003.9 15.4
2014-Sep-17 13:30N 47°15' W 153°44'1 1.1 1005.6 15.5
2014-Sep-17 12:30N 47°14' W 153°45'1 0.8 1006.6 15.5
2014-Sep-17 11:30N 47°15' W 153°44'1 0.2 1007.0 15.5
2014-Sep-17 06:30N 47°16' W 153°44'2 1.6 1008.7 15.5
2014-Sep-17 05:30N 47°17' W 153°45'0 0.2 1009.4 15.5
2014-Sep-17 03:30N 47°17' W 153°46'1 0.4 1009.7 15.5
2014-Sep-17 01:30N 47°17' W 153°47'2 1.2 1010.8 15.5
2014-Sep-16 23:30N 47°15' W 153°49'0 0.1 1012.7 15.5
2014-Sep-16 21:30N 47°15' W 153°49'1 0.3 1014.4 15.5
2014-Sep-16 19:30N 47°16' W 153°49'0 0.1 1014.9 15.4
2014-Sep-16 17:30N 47°16' W 153°49'1 0.3 1015.2 15.4
2014-Sep-16 15:30N 47°16' W 153°49'1 0.6 1015.3 15.4
2014-Sep-16 13:30N 47°16' W 153°51'1 0.2 1015.9 15.4
2014-Sep-16 07:30N 47°17' W 153°50'2 0.5 1017.3 15.5
2014-Sep-16 03:30N 47°17' W 153°53'0 0.3 1016.0 15.6
2014-Sep-16 02:30N 47°17' W 153°53'0 0.2 1015.7 15.6
2014-Sep-16 00:30N 47°16' W 153°53'1 0.6 1015.8 15.6
2014-Sep-15 23:30N 47°16' W 153°52'1 0.6 1016.0 15.6
2014-Sep-15 22:30N 47°15' W 153°52'3 0.9 1016.2 15.6
2014-Sep-15 19:30N 47°18' W 153°52'0 0.0 1015.8 15.4
2014-Sep-15 18:30N 47°18' W 153°52'0 0.3 1015.5 15.3
2014-Sep-15 17:30N 47°18' W 153°52'0 0.0 1015.5 15.3
2014-Sep-15 16:30N 47°18' W 153°52'1 0.7 1015.1 15.3
2014-Sep-15 15:30N 47°18' W 153°53'1 0.6 1014.9 15.3
2014-Sep-15 14:30N 47°19' W 153°53'1 1.4 1014.8 15.3
2014-Sep-15 13:30N 47°18' W 153°55'0 0.0 1014.8 15.3
2014-Sep-15 12:30N 47°18' W 153°55'2 0.4 1014.9 15.3
2014-Sep-15 07:30N 47°17' W 153°52'1 1.2 1014.9 15.4
2014-Sep-15 06:30N 47°18' W 153°52'1 0.4 1015.1 15.4
2014-Sep-15 03:30N 47°20' W 153°53'2 0.5 1014.1 15.4
2014-Sep-15 00:30N 47°19' W 153°56'1 0.9 1014.3 15.4
2014-Sep-14 23:30N 47°19' W 153°57'0 0.0 1014.3 15.4
2014-Sep-14 21:30N 47°19' W 153°57'1 0.5 1014.5 15.4
2014-Sep-14 20:30N 47°19' W 153°56'0 0.2 1014.7 15.4
2014-Sep-14 18:30N 47°19' W 153°56'1 0.3 1014.3 15.3
2014-Sep-14 16:30N 47°20' W 153°56'1 0.6 1013.9 15.4
2014-Sep-14 15:30N 47°19' W 153°57'1 1.0 1013.7 15.4
2014-Sep-14 14:30N 47°20' W 153°56'3 0.9 1013.6 15.4
2014-Sep-14 11:30N 47°22' W 153°59'2 1.6 1013.6 15.4
2014-Sep-14 10:30N 47°21' W 153°57'0 0.0 1013.9 15.4
2014-Sep-14 09:30N 47°21' W 153°57'1 0.5 1013.9 15.4
2014-Sep-14 07:30N 47°22' W 153°58'2 1.9 1014.2 15.5
2014-Sep-14 06:30N 47°20' W 153°59'2 0.8 1014.3 15.5
2014-Sep-14 04:30N 47°22' W 154°00'0 0.0 1013.7 15.6
2014-Sep-14 03:30N 47°22' W 154°00'1 0.6 1013.6 15.6
2014-Sep-14 01:30N 47°21' W 154°00'1 0.6 1013.7 15.6
2014-Sep-14 00:30N 47°21' W 153°60'1 0.3 1013.8 15.6
2014-Sep-13 21:30N 47°21' W 153°58'2 0.6 1014.2 15.5
2014-Sep-13 18:30N 47°23' W 153°59'0 0.0 1013.8 15.3
2014-Sep-13 17:30N 47°23' W 153°59'1 0.6 1013.7 15.3
2014-Sep-13 15:30N 47°24' W 154°00'0 0.5 1013.5 15.3
2014-Sep-13 14:30N 47°24' W 154°01'3 2.9 1013.3 15.3
2014-Sep-13 13:30N 47°24' W 154°05'4 1.2 1013.2 15.3
2014-Sep-13 10:30N 47°21' W 154°01'2 0.3 1013.6 15.3
2014-Sep-13 04:30N 47°22' W 153°59'2 1.2 1012.0 15.4
2014-Sep-13 02:30N 47°24' W 154°00'1 1.0 1011.3 15.5
2014-Sep-13 01:30N 47°25' W 153°59'1 1.3 1011.1 15.4
2014-Sep-13 00:30N 47°25' W 154°01'0 0.2 1010.6 15.4
2014-Sep-12 22:30N 47°25' W 154°02'2 1.0 1009.6 15.4
2014-Sep-12 20:30N 47°23' W 154°03'2 1.9 1008.1 15.4
2014-Sep-12 19:30N 47°22' W 154°02'0 0.5 1007.9 15.3
2014-Sep-12 18:30N 47°22' W 154°02'1 0.6 1007.3 15.3
2014-Sep-12 16:30N 47°23' W 154°03'0 0.0 1006.7 15.3
2014-Sep-12 15:30N 47°23' W 154°03'2 1.5 1006.5 15.3
2014-Sep-12 14:30N 47°24' W 154°01'2 1.0 1006.3 15.3
2014-Sep-12 12:30N 47°26' W 154°03'2 0.5 1005.9 15.3
2014-Sep-12 07:30N 47°25' W 154°06'1 1.0 1006.4 15.4
2014-Sep-12 06:30N 47°25' W 154°07'1 1.2 1006.0 15.5
2014-Sep-12 05:30N 47°24' W 154°08'1 0.3 1005.7 15.5
2014-Sep-12 03:30N 47°23' W 154°09'0 0.1 1005.6 15.6
2014-Sep-12 02:30N 47°23' W 154°09'1 0.2 1005.8 15.6
2014-Sep-11 22:30N 47°23' W 154°08'2 0.5 1009.0 15.6
2014-Sep-11 19:30N 47°22' W 154°06'2 0.7 1010.5 15.5
2014-Sep-11 16:30N 47°23' W 154°08'1 1.2 1010.6 15.4
2014-Sep-11 15:30N 47°23' W 154°10'1 0.6 1010.3 15.4
2014-Sep-11 14:30N 47°22' W 154°10'2 0.3 1010.4 15.5
2014-Sep-11 08:30N 47°23' W 154°08'   1010.7 15.5
Track history (hours):
 
Tides and Currents Weather Stations Pressure Air Temp Water Temp Dewpoint Dewpoint Depression Visibility Wind Speed Wind Dir Waves Ship Positions

Drifting buoy 46928

Last reported at 2014-Sep-21 07:30 UTC. Time now 2014-Sep-21 10:12 UTC.
Position N 47°04' W 153°28'.

Barometer 1008.9 mb
Water temperature 15.1 ° C

Date/timePositionNaut miles runAvg speedWind from/ knotsBaromVisibWave heightAir tempDewpointWater temp
2014-Sep-21 07:30N 47°04' W 153°28'1 0.4 1008.9 15.1
2014-Sep-21 05:30N 47°04' W 153°27'1 0.7 1008.3 15.2
2014-Sep-21 03:30N 47°05' W 153°29'1 0.9 1008.2 15.2
2014-Sep-21 02:30N 47°05' W 153°28'1 0.6 1008.0 15.2
2014-Sep-21 01:30N 47°05' W 153°29'1 0.8 1008.0 15.2
2014-Sep-21 00:30N 47°06' W 153°30'2 0.8 1007.8 15.2
2014-Sep-20 22:30N 47°07' W 153°28'0 0.2 1008.1 15.2
2014-Sep-20 20:30N 47°06' W 153°28'2 0.5 1008.0 15.2
2014-Sep-20 17:30N 47°06' W 153°30'0 0.1 1007.8 15.1
2014-Sep-20 15:30N 47°06' W 153°30'1 0.9 1007.3 15.1
2014-Sep-20 14:30N 47°06' W 153°29'1 0.9 1007.2 15.1
2014-Sep-20 13:30N 47°06' W 153°30'1 1.2 1007.1 15.1
2014-Sep-20 12:30N 47°07' W 153°30'1 0.4 1007.0 15.1
2014-Sep-20 10:30N 47°08' W 153°29'1 0.2 1007.0 15.1
2014-Sep-20 05:30N 47°08' W 153°30'1 1.0 1006.1 15.2
2014-Sep-20 04:30N 47°07' W 153°31'1 0.6 1005.7 15.2
2014-Sep-20 03:30N 47°07' W 153°32'1 0.9 1005.4 15.2
2014-Sep-20 02:30N 47°07' W 153°32'1 0.7 1005.1 15.2
2014-Sep-20 00:30N 47°06' W 153°30'0 0.4 1004.9 15.2
2014-Sep-19 23:30N 47°07' W 153°31'2 1.5 1005.0 15.2
2014-Sep-19 22:30N 47°07' W 153°29'1 0.7 1005.2 15.2
2014-Sep-19 20:30N 47°08' W 153°30'0 0.0 1005.3 15.2
2014-Sep-19 19:30N 47°08' W 153°30'1 0.4 1005.2 15.1
2014-Sep-19 17:30N 47°09' W 153°31'1 0.5 1004.3 15.1
2014-Sep-19 14:30N 47°08' W 153°33'1 0.7 1004.1 15.1
2014-Sep-19 13:30N 47°07' W 153°33'0 0.0 1004.2 15.1
2014-Sep-19 12:30N 47°07' W 153°33'0 0.0 1004.7 15.1
2014-Sep-19 11:30N 47°07' W 153°33'1 0.3 1005.2 15.1
2014-Sep-19 07:30N 47°08' W 153°32'1 0.7 1006.4 15.1
2014-Sep-19 06:30N 47°08' W 153°32'0 0.0 1006.6 15.1
2014-Sep-19 05:30N 47°08' W 153°32'1 0.2 1006.7 15.1
2014-Sep-18 22:30N 47°08' W 153°34'0 0.0 1007.3 15.1
2014-Sep-18 21:30N 47°08' W 153°34'1 0.2 1007.4 15.1
2014-Sep-18 16:30N 47°09' W 153°35'0 0.1 1006.6 15.0
2014-Sep-18 15:30N 47°09' W 153°35'0 0.2 1006.3 15.0
2014-Sep-18 13:30N 47°09' W 153°35'3 1.5 1005.9 15.1
2014-Sep-18 11:30N 47°12' W 153°35'0 0.0 1005.5 15.1
2014-Sep-18 08:30N 47°12' W 153°35'1 0.4 1004.4 15.2
2014-Sep-18 06:30N 47°13' W 153°36'2 0.4 1003.1 15.2
2014-Sep-18 02:30N 47°13' W 153°38'1 0.7 999.2 15.4
2014-Sep-18 01:30N 47°14' W 153°37'0 0.4 999.4 15.4
2014-Sep-18 00:30N 47°14' W 153°38'3 0.7 999.6 15.4
2014-Sep-17 20:30N 47°15' W 153°41'1 1.0 1001.0 15.4
2014-Sep-17 19:30N 47°16' W 153°42'0 0.3 1001.4 15.4
2014-Sep-17 18:30N 47°16' W 153°42'1 0.3 1002.3 15.4
2014-Sep-17 15:30N 47°16' W 153°43'1 0.7 1003.9 15.4
2014-Sep-17 13:30N 47°15' W 153°44'1 1.1 1005.6 15.5
2014-Sep-17 12:30N 47°14' W 153°45'1 0.8 1006.6 15.5
2014-Sep-17 11:30N 47°15' W 153°44'1 0.2 1007.0 15.5
2014-Sep-17 06:30N 47°16' W 153°44'2 1.6 1008.7 15.5
2014-Sep-17 05:30N 47°17' W 153°45'0 0.2 1009.4 15.5
2014-Sep-17 03:30N 47°17' W 153°46'1 0.4 1009.7 15.5
2014-Sep-17 01:30N 47°17' W 153°47'2 1.2 1010.8 15.5
2014-Sep-16 23:30N 47°15' W 153°49'0 0.1 1012.7 15.5
2014-Sep-16 21:30N 47°15' W 153°49'1 0.3 1014.4 15.5
2014-Sep-16 19:30N 47°16' W 153°49'0 0.1 1014.9 15.4
2014-Sep-16 17:30N 47°16' W 153°49'1 0.3 1015.2 15.4
2014-Sep-16 15:30N 47°16' W 153°49'1 0.6 1015.3 15.4
2014-Sep-16 13:30N 47°16' W 153°51'1 0.2 1015.9 15.4
2014-Sep-16 07:30N 47°17' W 153°50'2 0.5 1017.3 15.5
2014-Sep-16 03:30N 47°17' W 153°53'0 0.3 1016.0 15.6
2014-Sep-16 02:30N 47°17' W 153°53'0 0.2 1015.7 15.6
2014-Sep-16 00:30N 47°16' W 153°53'1 0.6 1015.8 15.6
2014-Sep-15 23:30N 47°16' W 153°52'1 0.6 1016.0 15.6
2014-Sep-15 22:30N 47°15' W 153°52'3 0.9 1016.2 15.6
2014-Sep-15 19:30N 47°18' W 153°52'0 0.0 1015.8 15.4
2014-Sep-15 18:30N 47°18' W 153°52'0 0.3 1015.5 15.3
2014-Sep-15 17:30N 47°18' W 153°52'0 0.0 1015.5 15.3
2014-Sep-15 16:30N 47°18' W 153°52'1 0.7 1015.1 15.3
2014-Sep-15 15:30N 47°18' W 153°53'1 0.6 1014.9 15.3
2014-Sep-15 14:30N 47°19' W 153°53'1 1.4 1014.8 15.3
2014-Sep-15 13:30N 47°18' W 153°55'0 0.0 1014.8 15.3
2014-Sep-15 12:30N 47°18' W 153°55'2 0.4 1014.9 15.3
2014-Sep-15 07:30N 47°17' W 153°52'1 1.2 1014.9 15.4
2014-Sep-15 06:30N 47°18' W 153°52'1 0.4 1015.1 15.4
2014-Sep-15 03:30N 47°20' W 153°53'2 0.5 1014.1 15.4
2014-Sep-15 00:30N 47°19' W 153°56'1 0.9 1014.3 15.4
2014-Sep-14 23:30N 47°19' W 153°57'0 0.0 1014.3 15.4
2014-Sep-14 21:30N 47°19' W 153°57'1 0.5 1014.5 15.4
2014-Sep-14 20:30N 47°19' W 153°56'0 0.2 1014.7 15.4
2014-Sep-14 18:30N 47°19' W 153°56'1 0.3 1014.3 15.3
2014-Sep-14 16:30N 47°20' W 153°56'1 0.6 1013.9 15.4
2014-Sep-14 15:30N 47°19' W 153°57'1 1.0 1013.7 15.4
2014-Sep-14 14:30N 47°20' W 153°56'3 0.9 1013.6 15.4
2014-Sep-14 11:30N 47°22' W 153°59'2 1.6 1013.6 15.4
2014-Sep-14 10:30N 47°21' W 153°57'0 0.0 1013.9 15.4
2014-Sep-14 09:30N 47°21' W 153°57'1 0.5 1013.9 15.4
2014-Sep-14 07:30N 47°22' W 153°58'2 1.9 1014.2 15.5
2014-Sep-14 06:30N 47°20' W 153°59'2 0.8 1014.3 15.5
2014-Sep-14 04:30N 47°22' W 154°00'0 0.0 1013.7 15.6
2014-Sep-14 03:30N 47°22' W 154°00'1 0.6 1013.6 15.6
2014-Sep-14 01:30N 47°21' W 154°00'1 0.6 1013.7 15.6
2014-Sep-14 00:30N 47°21' W 153°60'1 0.3 1013.8 15.6
2014-Sep-13 21:30N 47°21' W 153°58'2 0.6 1014.2 15.5
2014-Sep-13 18:30N 47°23' W 153°59'0 0.0 1013.8 15.3
2014-Sep-13 17:30N 47°23' W 153°59'1 0.6 1013.7 15.3
2014-Sep-13 15:30N 47°24' W 154°00'0 0.5 1013.5 15.3
2014-Sep-13 14:30N 47°24' W 154°01'3 2.9 1013.3 15.3
2014-Sep-13 13:30N 47°24' W 154°05'4 1.2 1013.2 15.3
2014-Sep-13 10:30N 47°21' W 154°01'2 0.3 1013.6 15.3
2014-Sep-13 04:30N 47°22' W 153°59'2 1.2 1012.0 15.4
2014-Sep-13 02:30N 47°24' W 154°00'1 1.0 1011.3 15.5
2014-Sep-13 01:30N 47°25' W 153°59'1 1.3 1011.1 15.4
2014-Sep-13 00:30N 47°25' W 154°01'0 0.2 1010.6 15.4
2014-Sep-12 22:30N 47°25' W 154°02'2 1.0 1009.6 15.4
2014-Sep-12 20:30N 47°23' W 154°03'2 1.9 1008.1 15.4
2014-Sep-12 19:30N 47°22' W 154°02'0 0.5 1007.9 15.3
2014-Sep-12 18:30N 47°22' W 154°02'1 0.6 1007.3 15.3
2014-Sep-12 16:30N 47°23' W 154°03'0 0.0 1006.7 15.3
2014-Sep-12 15:30N 47°23' W 154°03'2 1.5 1006.5 15.3
2014-Sep-12 14:30N 47°24' W 154°01'2 1.0 1006.3 15.3
2014-Sep-12 12:30N 47°26' W 154°03'2 0.5 1005.9 15.3
2014-Sep-12 07:30N 47°25' W 154°06'1 1.0 1006.4 15.4
2014-Sep-12 06:30N 47°25' W 154°07'1 1.2 1006.0 15.5
2014-Sep-12 05:30N 47°24' W 154°08'1 0.3 1005.7 15.5
2014-Sep-12 03:30N 47°23' W 154°09'0 0.1 1005.6 15.6
2014-Sep-12 02:30N 47°23' W 154°09'1 0.2 1005.8 15.6
2014-Sep-11 22:30N 47°23' W 154°08'2 0.5 1009.0 15.6
2014-Sep-11 19:30N 47°22' W 154°06'2 0.7 1010.5 15.5
2014-Sep-11 16:30N 47°23' W 154°08'1 1.2 1010.6 15.4
2014-Sep-11 15:30N 47°23' W 154°10'1 0.6 1010.3 15.4
2014-Sep-11 14:30N 47°22' W 154°10'2 0.3 1010.4 15.5
2014-Sep-11 08:30N 47°23' W 154°08'   1010.7 15.5

Dump ship's entire track history